KDDC/DDC METAR and TAF weather

Enter ICAO airport designator
Station Type Date Time Source
KDDC METAR 2019/08/21 02:52 UTC NOAA

KDDC 210252Z AUTO 11010KT 10SM CLR 29/10 A3001 RMK AO2 SLP123 T02890100 52008


Station Type Date Time Source
KDDC Decoded METAR 2019/08/21 02:52 UTC NOAA

Station name not available
Aug 20, 2019 - 10:52 PM EDT / 2019.08.21 0252 UTC
Wind: from the ESE (110 degrees) at 12 MPH (10 KT):0
Visibility: 10 mile(s):0
Sky conditions: clear
Temperature: 84.0 F (28.9 C)
Dew Point: 50.0 F (10.0 C)
Relative Humidity: 30%
Pressure (altimeter): 30.01 in. Hg (1016 hPa)
Pressure tendency: 0.02 inches (0.8 hPa) higher than three hours ago
ob: KDDC 210252Z AUTO 11010KT 10SM CLR 29/10 A3001 RMK AO2 SLP123 T02890100 52008
cycle: 3

Station Type Date Time Source
KDDC TAF 2019/08/21 03:58 UTC NOAA

TAF
AMD KDDC 210258Z 2103/2124 11011KT P6SM FEW200
FM210900 19008KT P6SM SCT200

Example: see airport list